Bindy — FGD5860 — position and weather

sailwx.info

Track history (hours):
 
Tides and Currents Weather Stations Pressure Air Temp Water Temp Dewpoint Dewpoint Depression Visibility Wind Speed Wind Dir Waves Ship Positions

Bindy

Last reported at 2018-Jun-22 13:30 UTC. Time now 2018-Jun-22 13:29 UTC.
Position N 48°23' W 004°30'.

Length 36 m; draft 2 m.

Type: Passenger vessel. MMSI: 227574030.

Date/timePositionNaut miles runAvg speedWind from/ knotsBaromVisibWave heightAir tempDewpointWater temp
2018-Jun-22 13:30N 48°23' W 004°30'0 0.0
2018-Jun-22 13:00N 48°23' W 004°30'1 1.3
2018-Jun-22 12:30N 48°22' W 004°30'1 1.6
2018-Jun-22 12:00N 48°22' W 004°31'2 3.3
2018-Jun-22 11:30N 48°21' W 004°29'3 6.5
2018-Jun-22 11:01N 48°18' W 004°28'1 3.0
2018-Jun-22 10:30N 48°19' W 004°28'4 7.5
2018-Jun-22 10:00N 48°23' W 004°30'0 0.0
2018-Jun-22 09:30N 48°23' W 004°30'0 0.0
2018-Jun-22 09:00N 48°23' W 004°30'0 0.0
2018-Jun-22 08:30N 48°23' W 004°30'0 0.0
2018-Jun-22 08:00N 48°23' W 004°30'1 1.8
2018-Jun-22 07:30N 48°22' W 004°29'4 8.8
2018-Jun-22 07:00N 48°18' W 004°31'510.4
2018-Jun-22 06:30N 48°23' W 004°30'5 9.3
2018-Jun-22 06:01N 48°18' W 004°30'1 2.4
2018-Jun-22 05:30N 48°20' W 004°29'3 6.8
2018-Jun-22 05:00N 48°23' W 004°30'0 0.0
2018-Jun-22 04:30N 48°23' W 004°30'0 0.0
2018-Jun-22 04:00N 48°23' W 004°30'0 0.0
2018-Jun-22 03:30N 48°23' W 004°30'0 0.0
2018-Jun-22 03:00N 48°23' W 004°30'0 0.0
2018-Jun-22 02:30N 48°23' W 004°30'0 0.0
2018-Jun-22 02:00N 48°23' W 004°30'0 0.0
2018-Jun-22 01:30N 48°23' W 004°30'0 0.0
2018-Jun-22 01:01N 48°23' W 004°30'0 0.0
2018-Jun-22 00:30N 48°23' W 004°30'0 0.0
2018-Jun-22 00:00N 48°23' W 004°30'0 0.0
2018-Jun-21 23:30N 48°23' W 004°30'0 0.0
2018-Jun-21 23:00N 48°23' W 004°30'0 0.0
2018-Jun-21 22:30N 48°23' W 004°30'0 0.0
2018-Jun-21 22:00N 48°23' W 004°30'0 0.0
2018-Jun-21 21:31N 48°23' W 004°30'0 0.0
2018-Jun-21 21:01N 48°23' W 004°30'0 0.0
2018-Jun-21 20:30N 48°23' W 004°30'0 0.0
2018-Jun-21 20:01N 48°23' W 004°30'0 0.0
2018-Jun-21 19:30N 48°23' W 004°30'0 0.0
2018-Jun-21 19:00N 48°23' W 004°30'0 0.0
2018-Jun-21 18:31N 48°23' W 004°30'0 0.0
2018-Jun-21 18:01N 48°23' W 004°30'0 0.0
2018-Jun-21 17:31N 48°23' W 004°30'0 0.0
2018-Jun-21 17:01N 48°23' W 004°30'0 0.0
2018-Jun-21 16:30N 48°23' W 004°30'0 0.0
2018-Jun-21 16:00N 48°23' W 004°30'0 0.0
2018-Jun-21 15:30N 48°23' W 004°30'1 2.8
2018-Jun-21 15:00N 48°22' W 004°29'4 7.9
2018-Jun-21 14:30N 48°18' W 004°31'510.3
2018-Jun-21 14:00N 48°23' W 004°30'0 0.0
2018-Jun-21 13:30N 48°23' W 004°30'0 0.0
2018-Jun-21 13:00N 48°23' W 004°30'0 0.0
2018-Jun-21 12:30N 48°23' W 004°30'0 0.0
2018-Jun-21 12:00N 48°23' W 004°30'0 0.0
2018-Jun-21 11:30N 48°23' W 004°30'0 0.0
2018-Jun-21 11:00N 48°23' W 004°30'0 0.0
2018-Jun-21 10:30N 48°23' W 004°30'510.4
2018-Jun-21 10:01N 48°18' W 004°31'4 7.8
2018-Jun-21 09:30N 48°17' W 004°25'713.4
2018-Jun-21 09:00N 48°23' W 004°30'0 0.0
2018-Jun-21 08:30N 48°23' W 004°30'0 0.0
2018-Jun-21 08:00N 48°23' W 004°30'1 2.2
2018-Jun-21 07:30N 48°22' W 004°29'4 8.5
2018-Jun-21 07:00N 48°18' W 004°31'510.4
2018-Jun-21 06:30N 48°23' W 004°30'5 9.9
2018-Jun-21 06:00N 48°18' W 004°30'0 0.8
2018-Jun-21 05:30N 48°18' W 004°30'510.3
2018-Jun-21 05:00N 48°23' W 004°30'0 0.0
2018-Jun-21 04:29N 48°23' W 004°30'0 0.0
2018-Jun-21 04:00N 48°23' W 004°30'0 0.0
2018-Jun-21 03:30N 48°23' W 004°30'0 0.0
2018-Jun-21 03:00N 48°23' W 004°30'0 0.0
2018-Jun-21 02:28N 48°23' W 004°30'0 0.0
2018-Jun-21 02:00N 48°23' W 004°30'0 0.0
2018-Jun-21 01:29N 48°23' W 004°30'0 0.0
2018-Jun-21 01:00N 48°23' W 004°30'0 0.0
2018-Jun-21 00:30N 48°23' W 004°30'0 0.0
2018-Jun-21 00:00N 48°23' W 004°30'0 0.0
2018-Jun-20 23:30N 48°23' W 004°30'0 0.0
2018-Jun-20 23:00N 48°23' W 004°30'0 0.0
2018-Jun-20 22:30N 48°23' W 004°30'0 0.0
2018-Jun-20 22:01N 48°23' W 004°30'0 0.0
2018-Jun-20 21:31N 48°23' W 004°30'0 0.0
2018-Jun-20 21:00N 48°23' W 004°30'0 0.0
2018-Jun-20 20:30N 48°23' W 004°30'0 0.0
2018-Jun-20 20:00N 48°23' W 004°30'0 0.0
2018-Jun-20 19:30N 48°23' W 004°30'0 0.0
2018-Jun-20 19:01N 48°23' W 004°30'0 0.0
2018-Jun-20 18:31N 48°23' W 004°30'0 0.0
2018-Jun-20 18:00N 48°23' W 004°30'0 0.0
2018-Jun-20 17:30N 48°23' W 004°30'0 0.0
2018-Jun-20 16:59N 48°23' W 004°30'0 0.0
2018-Jun-20 16:30N 48°23' W 004°30'0 0.0
2018-Jun-20 15:56N 48°23' W 004°30'0 0.0
2018-Jun-20 15:30N 48°23' W 004°30'1 2.8
2018-Jun-20 15:00N 48°22' W 004°29'4 7.8
2018-Jun-20 14:31N 48°18' W 004°31'510.1
2018-Jun-20 14:00N 48°23' W 004°30'0 0.0
2018-Jun-20 13:30N 48°23' W 004°30'0 0.0
2018-Jun-20 13:00N 48°23' W 004°30'0 0.0
2018-Jun-20 12:30N 48°23' W 004°30'0 0.0
2018-Jun-20 12:00N 48°23' W 004°30'0 0.0
2018-Jun-20 11:30N 48°23' W 004°30'0 0.0
2018-Jun-20 11:00N 48°23' W 004°30'0 0.0
2018-Jun-20 10:30N 48°23' W 004°30'510.4
2018-Jun-20 10:00N 48°18' W 004°31'4 7.9
2018-Jun-20 09:30N 48°17' W 004°25'713.4
2018-Jun-20 09:01N 48°23' W 004°30'0 0.0
2018-Jun-20 08:31N 48°23' W 004°30'0 0.0
2018-Jun-20 08:01N 48°23' W 004°30'1 2.6
2018-Jun-20 07:30N 48°22' W 004°29'4 8.1
2018-Jun-20 07:00N 48°18' W 004°31'510.4
2018-Jun-20 06:31N 48°23' W 004°30'510.1
2018-Jun-20 06:01N 48°18' W 004°30'0 0.5
2018-Jun-20 05:30N 48°18' W 004°31'510.4
2018-Jun-20 05:00N 48°23' W 004°30'0 0.0
2018-Jun-20 04:31N 48°23' W 004°30'0 0.0
2018-Jun-20 04:00N 48°23' W 004°30'0 0.0
2018-Jun-20 03:30N 48°23' W 004°30'0 0.0
2018-Jun-20 03:00N 48°23' W 004°30'0 0.0
2018-Jun-20 02:29N 48°23' W 004°30'0 0.0
2018-Jun-20 02:00N 48°23' W 004°30'0 0.0
2018-Jun-20 01:28N 48°23' W 004°30'0 0.0
2018-Jun-20 01:00N 48°23' W 004°30'0 0.0
2018-Jun-20 00:30N 48°23' W 004°30'0 0.0
2018-Jun-20 00:01N 48°23' W 004°30'0 0.0
2018-Jun-19 23:31N 48°23' W 004°30'0 0.0
2018-Jun-19 23:00N 48°23' W 004°30'0 0.0
2018-Jun-19 22:31N 48°23' W 004°30'0 0.0
2018-Jun-19 22:00N 48°23' W 004°30'0 0.0
2018-Jun-19 21:31N 48°23' W 004°30'0 0.0
2018-Jun-19 21:00N 48°23' W 004°30'0 0.0
2018-Jun-19 20:31N 48°23' W 004°30'0 0.0
2018-Jun-19 20:00N 48°23' W 004°30'0 0.0
2018-Jun-19 19:31N 48°23' W 004°30'0 0.0
2018-Jun-19 19:00N 48°23' W 004°30'0 0.0
2018-Jun-19 18:30N 48°23' W 004°30'0 0.0
2018-Jun-19 18:01N 48°23' W 004°30'0 0.0
2018-Jun-19 17:30N 48°23' W 004°30'0 0.0
2018-Jun-19 17:01N 48°23' W 004°30'0 0.0
2018-Jun-19 16:30N 48°23' W 004°30'0 0.0
2018-Jun-19 16:00N 48°23' W 004°30'0 0.0
2018-Jun-19 15:31N 48°23' W 004°30'1 2.5
2018-Jun-19 15:00N 48°22' W 004°29'4 8.2
2018-Jun-19 14:30N 48°18' W 004°31'510.3
2018-Jun-19 14:00N 48°23' W 004°30'0 0.0
2018-Jun-19 13:30N 48°23' W 004°30'0 0.0
2018-Jun-19 13:00N 48°23' W 004°30'0 0.0
2018-Jun-19 12:30N 48°23' W 004°30'0 0.0
2018-Jun-19 12:00N 48°23' W 004°30'0 0.0
2018-Jun-19 11:30N 48°23' W 004°30'0 0.0
2018-Jun-19 11:00N 48°23' W 004°30'0 0.0
2018-Jun-19 10:30N 48°23' W 004°30'510.4
2018-Jun-19 10:00N 48°18' W 004°31'4 7.8
2018-Jun-19 09:30N 48°17' W 004°25'713.4
2018-Jun-19 09:00N 48°23' W 004°30'0 0.0
2018-Jun-19 08:31N 48°23' W 004°30'0 0.0
2018-Jun-19 08:00N 48°23' W 004°30'0 0.8
2018-Jun-19 07:30N 48°23' W 004°30'5 9.7
2018-Jun-19 07:00N 48°18' W 004°31'510.3
2018-Jun-19 06:30N 48°23' W 004°30'5 9.8
2018-Jun-19 06:00N 48°18' W 004°30'0 0.9
2018-Jun-19 05:30N 48°18' W 004°30'510.3
2018-Jun-19 05:01N 48°23' W 004°30'0 0.0
2018-Jun-19 04:31N 48°23' W 004°30'0 0.0
2018-Jun-19 04:01N 48°23' W 004°30'0 0.0
2018-Jun-19 03:31N 48°23' W 004°30'0 0.0
2018-Jun-19 03:01N 48°23' W 004°30'0 0.0
2018-Jun-19 02:30N 48°23' W 004°30'0 0.0
2018-Jun-19 02:01N 48°23' W 004°30'0 0.0
2018-Jun-19 01:31N 48°23' W 004°30'0 0.0
2018-Jun-19 01:00N 48°23' W 004°30'0 0.0
2018-Jun-19 00:30N 48°23' W 004°30'0 0.0
2018-Jun-19 00:00N 48°23' W 004°30'0 0.0
2018-Jun-18 23:31N 48°23' W 004°30'0 0.0
2018-Jun-18 23:01N 48°23' W 004°30'0 0.0
2018-Jun-18 22:31N 48°23' W 004°30'0 0.0
2018-Jun-18 22:01N 48°23' W 004°30'0 0.0
2018-Jun-18 21:30N 48°23' W 004°30'0 0.0
2018-Jun-18 21:01N 48°23' W 004°30'0 0.0
2018-Jun-18 20:31N 48°23' W 004°30'0 0.0
2018-Jun-18 20:01N 48°23' W 004°30'0 0.0
2018-Jun-18 19:30N 48°23' W 004°30'0 0.0
2018-Jun-18 19:01N 48°23' W 004°30'0 0.0
2018-Jun-18 18:31N 48°23' W 004°30'0 0.0
2018-Jun-18 18:01N 48°23' W 004°30'0 0.0
2018-Jun-18 17:30N 48°23' W 004°30'0 0.0
2018-Jun-18 17:00N 48°23' W 004°30'0 0.0
2018-Jun-18 16:31N 48°23' W 004°30'0 0.0
2018-Jun-18 16:00N 48°23' W 004°30'0 0.0
2018-Jun-18 15:31N 48°23' W 004°30'1 1.9
2018-Jun-18 15:00N 48°22' W 004°29'4 8.8
2018-Jun-18 14:30N 48°18' W 004°31'5 9.8
2018-Jun-18 13:59N 48°23' W 004°30'0 0.0
2018-Jun-18 13:31N 48°23' W 004°30'0 0.0
2018-Jun-18 13:00N 48°23' W 004°30'0 0.0
2018-Jun-18 12:30N 48°23' W 004°30'0 0.0
2018-Jun-18 12:01N 48°23' W 004°30'0 0.0
2018-Jun-18 11:31N 48°23' W 004°30'0 0.0
2018-Jun-18 11:01N 48°23' W 004°30'0 0.0
2018-Jun-18 10:30N 48°23' W 004°30'510.5
2018-Jun-18 10:00N 48°18' W 004°31'4 7.8
2018-Jun-18 09:31N 48°17' W 004°25'713.4
2018-Jun-18 09:01N 48°23' W 004°30'0 0.0
2018-Jun-18 08:31N 48°23' W 004°30'0 0.0
2018-Jun-18 08:00N 48°23' W 004°30'1 2.9
2018-Jun-18 07:30N 48°22' W 004°29'4 7.9
2018-Jun-18 07:00N 48°18' W 004°31'510.4
2018-Jun-18 06:30N 48°23' W 004°30'510.1
2018-Jun-18 06:00N 48°18' W 004°30'0 0.9
2018-Jun-18 05:30N 48°18' W 004°30'510.3
2018-Jun-18 05:00N 48°23' W 004°30'0 0.0
2018-Jun-18 04:30N 48°23' W 004°30'0 0.0
2018-Jun-18 04:00N 48°23' W 004°30'0 0.0
2018-Jun-18 03:30N 48°23' W 004°30'0 0.0
2018-Jun-18 03:00N 48°23' W 004°30'0 0.0
2018-Jun-18 02:30N 48°23' W 004°30'0 0.0
2018-Jun-18 02:00N 48°23' W 004°30'0 0.0
2018-Jun-18 01:30N 48°23' W 004°30'0 0.0
2018-Jun-18 01:00N 48°23' W 004°30'0 0.0
2018-Jun-18 00:30N 48°23' W 004°30'0 0.0
2018-Jun-18 00:00N 48°23' W 004°30'0 0.0
2018-Jun-17 23:30N 48°23' W 004°30'0 0.0
2018-Jun-17 23:00N 48°23' W 004°30'0 0.0
2018-Jun-17 22:30N 48°23' W 004°30'0 0.0
2018-Jun-17 22:00N 48°23' W 004°30'0 0.0
2018-Jun-17 21:30N 48°23' W 004°30'0 0.0
2018-Jun-17 21:00N 48°23' W 004°30'0 0.0
2018-Jun-17 20:30N 48°23' W 004°30'0 0.0
2018-Jun-17 20:00N 48°23' W 004°30'0 0.0
2018-Jun-17 19:30N 48°23' W 004°30'0 0.0
2018-Jun-17 19:00N 48°23' W 004°30'0 0.0
2018-Jun-17 18:30N 48°23' W 004°30'0 0.0
2018-Jun-17 18:00N 48°23' W 004°30'0 0.0
2018-Jun-17 17:30N 48°23' W 004°30'0 0.0
2018-Jun-17 17:00N 48°23' W 004°30'0 0.0
2018-Jun-17 16:30N 48°23' W 004°30'0 0.0
2018-Jun-17 16:00N 48°23' W 004°30'0 0.0
2018-Jun-17 15:30N 48°23' W 004°30'0 0.0
2018-Jun-17 15:00N 48°23' W 004°30'0 0.0
2018-Jun-17 14:30N 48°23' W 004°30'0 0.0
2018-Jun-17 14:00N 48°23' W 004°30'0 0.0
2018-Jun-17 13:30N 48°23' W 004°30'0 0.0
2018-Jun-17 13:00N 48°23' W 004°30'0 0.0
2018-Jun-17 12:30N 48°23' W 004°30'0 0.0
2018-Jun-17 12:00N 48°23' W 004°30'0 0.0
2018-Jun-17 11:30N 48°23' W 004°30'0 0.0
2018-Jun-17 11:00N 48°23' W 004°30'0 0.0
2018-Jun-17 10:30N 48°23' W 004°30'0 0.0
2018-Jun-17 10:00N 48°23' W 004°30'0 0.0
2018-Jun-17 09:30N 48°23' W 004°30'0 0.0
2018-Jun-17 09:00N 48°23' W 004°30'0 0.0
2018-Jun-17 08:30N 48°23' W 004°30'0 0.0
2018-Jun-17 08:00N 48°23' W 004°30'0 0.0
2018-Jun-17 07:30N 48°23' W 004°30'0 0.0
2018-Jun-17 07:00N 48°23' W 004°30'0 0.0
2018-Jun-17 06:30N 48°23' W 004°30'0 0.0
2018-Jun-17 06:00N 48°23' W 004°30'0 0.0
2018-Jun-17 05:30N 48°23' W 004°30'0 0.0
2018-Jun-17 05:00N 48°23' W 004°30'0 0.0
2018-Jun-17 04:30N 48°23' W 004°30'0 0.0
2018-Jun-17 04:00N 48°23' W 004°30'0 0.0
2018-Jun-17 03:30N 48°23' W 004°30'0 0.0
2018-Jun-17 03:00N 48°23' W 004°30'0 0.0
2018-Jun-17 02:30N 48°23' W 004°30'0 0.0
2018-Jun-17 02:00N 48°23' W 004°30'0 0.0
2018-Jun-17 01:30N 48°23' W 004°30'0 0.0
2018-Jun-17 01:00N 48°23' W 004°30'0 0.0
2018-Jun-17 00:30N 48°23' W 004°30'0 0.0
2018-Jun-17 00:00N 48°23' W 004°30'0 0.0
2018-Jun-16 23:30N 48°23' W 004°30'0 0.0
2018-Jun-16 23:00N 48°23' W 004°30'0 0.0
2018-Jun-16 22:30N 48°23' W 004°30'0 0.0
2018-Jun-16 22:00N 48°23' W 004°30'0 0.0
2018-Jun-16 21:30N 48°23' W 004°30'0 0.0
2018-Jun-16 21:00N 48°23' W 004°30'0 0.0
2018-Jun-16 20:30N 48°23' W 004°30'0 0.0
2018-Jun-16 20:00N 48°23' W 004°30'0 0.0
2018-Jun-16 19:30N 48°23' W 004°30'0 0.0
2018-Jun-16 19:00N 48°23' W 004°30'0 0.0
2018-Jun-16 18:30N 48°23' W 004°30'0 0.0
2018-Jun-16 18:00N 48°23' W 004°30'0 0.0
2018-Jun-16 17:30N 48°23' W 004°30'0 0.0
2018-Jun-16 17:00N 48°23' W 004°30'0 0.0
2018-Jun-16 16:30N 48°23' W 004°30'0 0.0
2018-Jun-16 16:00N 48°23' W 004°30'0 0.0
2018-Jun-16 15:30N 48°23' W 004°30'0 0.0
2018-Jun-16 15:00N 48°23' W 004°30'0 0.0
2018-Jun-16 14:30N 48°23' W 004°30'0 0.0
2018-Jun-16 14:00N 48°23' W 004°30'0 0.0
2018-Jun-16 13:30N 48°23' W 004°30'0 0.0
2018-Jun-16 13:00N 48°23' W 004°30'0 0.0
2018-Jun-16 12:30N 48°23' W 004°30'0 0.0
2018-Jun-16 12:00N 48°23' W 004°30'0 0.0
2018-Jun-16 11:30N 48°23' W 004°30'0 0.0
2018-Jun-16 11:00N 48°23' W 004°30'0 0.0
2018-Jun-16 10:29N 48°23' W 004°30'0 0.0
2018-Jun-16 10:00N 48°23' W 004°30'0 0.0
2018-Jun-16 09:30N 48°23' W 004°30'0 0.0
2018-Jun-16 09:00N 48°23' W 004°30'0 0.0
2018-Jun-16 08:30N 48°23' W 004°30'0 0.0
2018-Jun-16 08:01N 48°23' W 004°30'0 0.0
2018-Jun-16 07:31N 48°23' W 004°30'0 0.0
2018-Jun-16 07:00N 48°23' W 004°30'0 0.0
2018-Jun-16 06:30N 48°23' W 004°30'0 0.0
2018-Jun-16 06:01N 48°23' W 004°30'0 0.0
2018-Jun-16 05:31N 48°23' W 004°30'0 0.0
2018-Jun-16 05:00N 48°23' W 004°30'0 0.0
2018-Jun-16 04:31N 48°23' W 004°30'0 0.0
2018-Jun-16 04:00N 48°23' W 004°30'0 0.0
2018-Jun-16 03:30N 48°23' W 004°30'0 0.0
2018-Jun-16 03:00N 48°23' W 004°30'0 0.0
2018-Jun-16 02:31N 48°23' W 004°30'0 0.0
2018-Jun-16 02:01N 48°23' W 004°30'0 0.0
2018-Jun-16 01:31N 48°23' W 004°30'0 0.0
2018-Jun-16 01:01N 48°23' W 004°30'0 0.0
2018-Jun-16 00:31N 48°23' W 004°30'0 0.0
2018-Jun-16 00:01N 48°23' W 004°30'0 0.0
2018-Jun-15 23:31N 48°23' W 004°30'0 0.0
2018-Jun-15 23:01N 48°23' W 004°30'0 0.0
2018-Jun-15 22:31N 48°23' W 004°30'0 0.0
2018-Jun-15 22:01N 48°23' W 004°30'0 0.0
2018-Jun-15 21:31N 48°23' W 004°30'0 0.0
2018-Jun-15 21:01N 48°23' W 004°30'0 0.0
2018-Jun-15 20:30N 48°23' W 004°30'0 0.0
2018-Jun-15 20:00N 48°23' W 004°30'0 0.0
2018-Jun-15 19:31N 48°23' W 004°30'0 0.0
2018-Jun-15 19:01N 48°23' W 004°30'0 0.0
2018-Jun-15 18:31N 48°23' W 004°30'0 0.0
2018-Jun-15 18:01N 48°23' W 004°30'0 0.0
2018-Jun-15 17:30N 48°23' W 004°30'0 0.0
2018-Jun-15 17:01N 48°23' W 004°30'0 0.0
2018-Jun-15 16:31N 48°23' W 004°30'0 0.0
2018-Jun-15 16:01N 48°23' W 004°30'0 0.0
2018-Jun-15 15:31N 48°23' W 004°30'1 2.2
2018-Jun-15 15:00N 48°22' W 004°29'4 8.5
2018-Jun-15 14:30N 48°18' W 004°31'510.3
2018-Jun-15 14:00N 48°23' W 004°30'0 0.0
2018-Jun-15 13:30N 48°23' W 004°30'0 0.0
2018-Jun-15 13:00N 48°23' W 004°30'0 0.0
2018-Jun-15 12:28N 48°23' W 004°30'0 0.0
2018-Jun-15 12:00N 48°23' W 004°30'0 0.0
2018-Jun-15 11:30N 48°23' W 004°30'0 0.0
2018-Jun-15 11:00N 48°23' W 004°30'0 0.0
2018-Jun-15 10:30N 48°23' W 004°30'510.4
2018-Jun-15 10:00N 48°18' W 004°31'4 7.9
2018-Jun-15 09:30N 48°17' W 004°25'713.4
2018-Jun-15 09:00N 48°23' W 004°30'0 0.0
2018-Jun-15 08:30N 48°23' W 004°30'1 1.9
2018-Jun-15 08:00N 48°22' W 004°31'1 1.7
2018-Jun-15 07:30N 48°22' W 004°29'5 9.2
2018-Jun-15 07:00N 48°18' W 004°31'510.3
2018-Jun-15 06:30N 48°23' W 004°30'5 9.8
2018-Jun-15 06:01N 48°18' W 004°30'0 0.8
2018-Jun-15 05:30N 48°18' W 004°30'510.4
2018-Jun-15 05:00N 48°23' W 004°30'0 0.0
2018-Jun-15 04:30N 48°23' W 004°30'0 0.0
2018-Jun-15 04:00N 48°23' W 004°30'0 0.0
2018-Jun-15 03:30N 48°23' W 004°30'0 0.0
2018-Jun-15 03:00N 48°23' W 004°30'0 0.0
2018-Jun-15 02:30N 48°23' W 004°30'0 0.0
2018-Jun-15 02:00N 48°23' W 004°30'0 0.0
2018-Jun-15 01:30N 48°23' W 004°30'0 0.0
2018-Jun-15 01:00N 48°23' W 004°30'0 0.0
2018-Jun-15 00:30N 48°23' W 004°30'0 0.0
2018-Jun-15 00:00N 48°23' W 004°30'0 0.0
2018-Jun-14 23:30N 48°23' W 004°30'0 0.0
2018-Jun-14 23:00N 48°23' W 004°30'0 0.0
2018-Jun-14 22:30N 48°23' W 004°30'0 0.0
2018-Jun-14 22:00N 48°23' W 004°30'0 0.0
2018-Jun-14 21:30N 48°23' W 004°30'0 0.0
2018-Jun-14 21:00N 48°23' W 004°30'0 0.0
2018-Jun-14 20:30N 48°23' W 004°30'0 0.0
2018-Jun-14 19:58N 48°23' W 004°30'0 0.0
2018-Jun-14 19:30N 48°23' W 004°30'0 0.0
2018-Jun-14 19:00N 48°23' W 004°30'0 0.0
2018-Jun-14 18:30N 48°23' W 004°30'0 0.0
2018-Jun-14 18:00N 48°23' W 004°30'0 0.0
2018-Jun-14 17:30N 48°23' W 004°30'0 0.0
2018-Jun-14 17:00N 48°23' W 004°30'0 0.0
2018-Jun-14 16:30N 48°23' W 004°30'0 0.0
2018-Jun-14 16:00N 48°23' W 004°30'0 0.0
2018-Jun-14 15:30N 48°23' W 004°30'1 2.5
2018-Jun-14 15:00N 48°22' W 004°29'4 8.1
2018-Jun-14 14:30N 48°18' W 004°31'510.2
2018-Jun-14 14:00N 48°23' W 004°30'0 0.0
2018-Jun-14 13:30N 48°23' W 004°30'0 0.0
2018-Jun-14 13:00N 48°23' W 004°30'0 0.0
2018-Jun-14 12:30N 48°23' W 004°30'0 0.0
2018-Jun-14 12:00N 48°23' W 004°30'0 0.0
2018-Jun-14 11:30N 48°23' W 004°30'0 0.0
2018-Jun-14 11:00N 48°23' W 004°30'0 0.0
2018-Jun-14 10:30N 48°23' W 004°30'510.4
2018-Jun-14 10:00N 48°18' W 004°31'4 7.9
2018-Jun-14 09:31N 48°17' W 004°25'713.4
2018-Jun-14 09:00N 48°23' W 004°30'0 0.0
2018-Jun-14 08:30N 48°23' W 004°30'0 0.0
2018-Jun-14 08:00N 48°23' W 004°30'1 2.2
2018-Jun-14 07:30N 48°22' W 004°29'4 8.4
2018-Jun-14 07:00N 48°18' W 004°31'510.5
2018-Jun-14 06:30N 48°23' W 004°30'5 9.8
2018-Jun-14 06:00N 48°18' W 004°30'0 0.6
2018-Jun-14 05:30N 48°18' W 004°30'510.2
2018-Jun-14 05:00N 48°23' W 004°30'0 0.0
2018-Jun-14 04:30N 48°23' W 004°30'0 0.0
2018-Jun-14 04:00N 48°23' W 004°30'0 0.0
2018-Jun-14 03:30N 48°23' W 004°30'0 0.0
2018-Jun-14 03:00N 48°23' W 004°30'0 0.0
2018-Jun-14 02:30N 48°23' W 004°30'0 0.0
2018-Jun-14 02:00N 48°23' W 004°30'0 0.0
2018-Jun-14 01:30N 48°23' W 004°30'0 0.0
2018-Jun-14 01:00N 48°23' W 004°30'0 0.0
2018-Jun-14 00:30N 48°23' W 004°30'0 0.0
2018-Jun-14 00:00N 48°23' W 004°30'0 0.0
2018-Jun-13 23:30N 48°23' W 004°30'0 0.0
2018-Jun-13 23:00N 48°23' W 004°30'0 0.0
2018-Jun-13 22:30N 48°23' W 004°30'0 0.0
2018-Jun-13 22:00N 48°23' W 004°30'0 0.0
2018-Jun-13 21:30N 48°23' W 004°30'0 0.0
2018-Jun-13 21:00N 48°23' W 004°30'0 0.0
2018-Jun-13 20:30N 48°23' W 004°30'0 0.0
2018-Jun-13 20:00N 48°23' W 004°30'0 0.0
2018-Jun-13 19:30N 48°23' W 004°30'0 0.0
2018-Jun-13 19:00N 48°23' W 004°30'0 0.0
2018-Jun-13 18:30N 48°23' W 004°30'0 0.0
2018-Jun-13 18:00N 48°23' W 004°30'0 0.0
2018-Jun-13 17:30N 48°23' W 004°30'0 0.0
2018-Jun-13 17:00N 48°23' W 004°30'0 0.0
2018-Jun-13 16:30N 48°23' W 004°30'0 0.0
2018-Jun-13 16:00N 48°23' W 004°30'0 0.0
2018-Jun-13 15:30N 48°23' W 004°30'1 2.0
2018-Jun-13 15:00N 48°22' W 004°29'4 8.6
2018-Jun-13 14:30N 48°18' W 004°31'510.4
2018-Jun-13 14:00N 48°23' W 004°30'0 0.0
2018-Jun-13 13:30N 48°23' W 004°30'0 0.0
2018-Jun-13 13:00N 48°23' W 004°30'0 0.0
2018-Jun-13 12:30N 48°23' W 004°30'0 0.0
2018-Jun-13 12:00N 48°23' W 004°30'0 0.0
2018-Jun-13 11:29N 48°23' W 004°30'0 0.0
2018-Jun-13 11:00N 48°23' W 004°30'0 0.0
2018-Jun-13 10:30N 48°23' W 004°30'510.4
2018-Jun-13 10:00N 48°18' W 004°31'4 7.8
2018-Jun-13 09:30N 48°17' W 004°25'713.5
2018-Jun-13 09:00N 48°23' W 004°30'0 0.0
2018-Jun-13 08:30N 48°23' W 004°30'0 0.0
2018-Jun-13 08:00N 48°23' W 004°30'1 2.0
2018-Jun-13 07:30N 48°22' W 004°29'4 8.7
2018-Jun-13 07:00N 48°18' W 004°31'510.2
2018-Jun-13 06:30N 48°23' W 004°30'5 9.9
2018-Jun-13 06:00N 48°18' W 004°30'0 0.7
2018-Jun-13 05:31N 48°18' W 004°30'510.2
2018-Jun-13 05:00N 48°23' W 004°30'0 0.0
2018-Jun-13 04:30N 48°23' W 004°30'0 0.0
2018-Jun-13 03:59N 48°23' W 004°30'0 0.0
2018-Jun-13 03:30N 48°23' W 004°30'0 0.0
2018-Jun-13 03:00N 48°23' W 004°30'0 0.0
2018-Jun-13 02:30N 48°23' W 004°30'0 0.0
2018-Jun-13 02:00N 48°23' W 004°30'0 0.0
2018-Jun-13 01:31N 48°23' W 004°30'0 0.0
2018-Jun-13 01:00N 48°23' W 004°30'0 0.0
2018-Jun-13 00:30N 48°23' W 004°30'0 0.0
2018-Jun-13 00:00N 48°23' W 004°30'0 0.0
2018-Jun-12 23:30N 48°23' W 004°30'0 0.0
2018-Jun-12 22:59N 48°23' W 004°30'0 0.0
2018-Jun-12 22:28N 48°23' W 004°30'0 0.0
2018-Jun-12 22:00N 48°23' W 004°30'0 0.0
2018-Jun-12 21:30N 48°23' W 004°30'0 0.0
2018-Jun-12 21:00N 48°23' W 004°30'0 0.0
2018-Jun-12 20:30N 48°23' W 004°30'0 0.0
2018-Jun-12 19:59N 48°23' W 004°30'0 0.0
2018-Jun-12 19:31N 48°23' W 004°30'0 0.0
2018-Jun-12 18:59N 48°23' W 004°30'0 0.0
2018-Jun-12 18:30N 48°23' W 004°30'0 0.0
2018-Jun-12 18:00N 48°23' W 004°30'0 0.0
2018-Jun-12 17:31N 48°23' W 004°30'0 0.0
2018-Jun-12 17:01N 48°23' W 004°30'0 0.0
2018-Jun-12 16:30N 48°23' W 004°30'0 0.0
2018-Jun-12 16:00N 48°23' W 004°30'0 0.0
2018-Jun-12 15:31N 48°23' W 004°30'1 2.4
2018-Jun-12 15:00N 48°22' W 004°29'4 8.3
2018-Jun-12 14:30N 48°18' W 004°31'510.4
2018-Jun-12 14:00N 48°23' W 004°30'  
Track history (hours):
 
Tides and Currents Weather Stations Pressure Air Temp Water Temp Dewpoint Dewpoint Depression Visibility Wind Speed Wind Dir Waves Ship Positions

Bindy

Last reported at 2018-Jun-22 13:30 UTC. Time now 2018-Jun-22 13:29 UTC.
Position N 48°23' W 004°30'.

Length 36 m; draft 2 m.

Type: Passenger vessel. MMSI: 227574030.

Date/timePositionNaut miles runAvg speedWind from/ knotsBaromVisibWave heightAir tempDewpointWater temp
2018-Jun-22 13:30N 48°23' W 004°30'0 0.0
2018-Jun-22 13:00N 48°23' W 004°30'1 1.3
2018-Jun-22 12:30N 48°22' W 004°30'1 1.6
2018-Jun-22 12:00N 48°22' W 004°31'2 3.3
2018-Jun-22 11:30N 48°21' W 004°29'3 6.5
2018-Jun-22 11:01N 48°18' W 004°28'1 3.0
2018-Jun-22 10:30N 48°19' W 004°28'4 7.5
2018-Jun-22 10:00N 48°23' W 004°30'0 0.0
2018-Jun-22 09:30N 48°23' W 004°30'0 0.0
2018-Jun-22 09:00N 48°23' W 004°30'0 0.0
2018-Jun-22 08:30N 48°23' W 004°30'0 0.0
2018-Jun-22 08:00N 48°23' W 004°30'1 1.8
2018-Jun-22 07:30N 48°22' W 004°29'4 8.8
2018-Jun-22 07:00N 48°18' W 004°31'510.4
2018-Jun-22 06:30N 48°23' W 004°30'5 9.3
2018-Jun-22 06:01N 48°18' W 004°30'1 2.4
2018-Jun-22 05:30N 48°20' W 004°29'3 6.8
2018-Jun-22 05:00N 48°23' W 004°30'0 0.0
2018-Jun-22 04:30N 48°23' W 004°30'0 0.0
2018-Jun-22 04:00N 48°23' W 004°30'0 0.0
2018-Jun-22 03:30N 48°23' W 004°30'0 0.0
2018-Jun-22 03:00N 48°23' W 004°30'0 0.0
2018-Jun-22 02:30N 48°23' W 004°30'0 0.0
2018-Jun-22 02:00N 48°23' W 004°30'0 0.0
2018-Jun-22 01:30N 48°23' W 004°30'0 0.0
2018-Jun-22 01:01N 48°23' W 004°30'0 0.0
2018-Jun-22 00:30N 48°23' W 004°30'0 0.0
2018-Jun-22 00:00N 48°23' W 004°30'0 0.0
2018-Jun-21 23:30N 48°23' W 004°30'0 0.0
2018-Jun-21 23:00N 48°23' W 004°30'0 0.0
2018-Jun-21 22:30N 48°23' W 004°30'0 0.0
2018-Jun-21 22:00N 48°23' W 004°30'0 0.0
2018-Jun-21 21:31N 48°23' W 004°30'0 0.0
2018-Jun-21 21:01N 48°23' W 004°30'0 0.0
2018-Jun-21 20:30N 48°23' W 004°30'0 0.0
2018-Jun-21 20:01N 48°23' W 004°30'0 0.0
2018-Jun-21 19:30N 48°23' W 004°30'0 0.0
2018-Jun-21 19:00N 48°23' W 004°30'0 0.0
2018-Jun-21 18:31N 48°23' W 004°30'0 0.0
2018-Jun-21 18:01N 48°23' W 004°30'0 0.0
2018-Jun-21 17:31N 48°23' W 004°30'0 0.0
2018-Jun-21 17:01N 48°23' W 004°30'0 0.0
2018-Jun-21 16:30N 48°23' W 004°30'0 0.0
2018-Jun-21 16:00N 48°23' W 004°30'0 0.0
2018-Jun-21 15:30N 48°23' W 004°30'1 2.8
2018-Jun-21 15:00N 48°22' W 004°29'4 7.9
2018-Jun-21 14:30N 48°18' W 004°31'510.3
2018-Jun-21 14:00N 48°23' W 004°30'0 0.0
2018-Jun-21 13:30N 48°23' W 004°30'0 0.0
2018-Jun-21 13:00N 48°23' W 004°30'0 0.0
2018-Jun-21 12:30N 48°23' W 004°30'0 0.0
2018-Jun-21 12:00N 48°23' W 004°30'0 0.0
2018-Jun-21 11:30N 48°23' W 004°30'0 0.0
2018-Jun-21 11:00N 48°23' W 004°30'0 0.0
2018-Jun-21 10:30N 48°23' W 004°30'510.4
2018-Jun-21 10:01N 48°18' W 004°31'4 7.8
2018-Jun-21 09:30N 48°17' W 004°25'713.4
2018-Jun-21 09:00N 48°23' W 004°30'0 0.0
2018-Jun-21 08:30N 48°23' W 004°30'0 0.0
2018-Jun-21 08:00N 48°23' W 004°30'1 2.2
2018-Jun-21 07:30N 48°22' W 004°29'4 8.5
2018-Jun-21 07:00N 48°18' W 004°31'510.4
2018-Jun-21 06:30N 48°23' W 004°30'5 9.9
2018-Jun-21 06:00N 48°18' W 004°30'0 0.8
2018-Jun-21 05:30N 48°18' W 004°30'510.3
2018-Jun-21 05:00N 48°23' W 004°30'0 0.0
2018-Jun-21 04:29N 48°23' W 004°30'0 0.0
2018-Jun-21 04:00N 48°23' W 004°30'0 0.0
2018-Jun-21 03:30N 48°23' W 004°30'0 0.0
2018-Jun-21 03:00N 48°23' W 004°30'0 0.0
2018-Jun-21 02:28N 48°23' W 004°30'0 0.0
2018-Jun-21 02:00N 48°23' W 004°30'0 0.0
2018-Jun-21 01:29N 48°23' W 004°30'0 0.0
2018-Jun-21 01:00N 48°23' W 004°30'0 0.0
2018-Jun-21 00:30N 48°23' W 004°30'0 0.0
2018-Jun-21 00:00N 48°23' W 004°30'0 0.0
2018-Jun-20 23:30N 48°23' W 004°30'0 0.0
2018-Jun-20 23:00N 48°23' W 004°30'0 0.0
2018-Jun-20 22:30N 48°23' W 004°30'0 0.0
2018-Jun-20 22:01N 48°23' W 004°30'0 0.0
2018-Jun-20 21:31N 48°23' W 004°30'0 0.0
2018-Jun-20 21:00N 48°23' W 004°30'0 0.0
2018-Jun-20 20:30N 48°23' W 004°30'0 0.0
2018-Jun-20 20:00N 48°23' W 004°30'0 0.0
2018-Jun-20 19:30N 48°23' W 004°30'0 0.0
2018-Jun-20 19:01N 48°23' W 004°30'0 0.0
2018-Jun-20 18:31N 48°23' W 004°30'0 0.0
2018-Jun-20 18:00N 48°23' W 004°30'0 0.0
2018-Jun-20 17:30N 48°23' W 004°30'0 0.0
2018-Jun-20 16:59N 48°23' W 004°30'0 0.0
2018-Jun-20 16:30N 48°23' W 004°30'0 0.0
2018-Jun-20 15:56N 48°23' W 004°30'0 0.0
2018-Jun-20 15:30N 48°23' W 004°30'1 2.8
2018-Jun-20 15:00N 48°22' W 004°29'4 7.8
2018-Jun-20 14:31N 48°18' W 004°31'510.1
2018-Jun-20 14:00N 48°23' W 004°30'0 0.0
2018-Jun-20 13:30N 48°23' W 004°30'0 0.0
2018-Jun-20 13:00N 48°23' W 004°30'0 0.0
2018-Jun-20 12:30N 48°23' W 004°30'0 0.0
2018-Jun-20 12:00N 48°23' W 004°30'0 0.0
2018-Jun-20 11:30N 48°23' W 004°30'0 0.0
2018-Jun-20 11:00N 48°23' W 004°30'0 0.0
2018-Jun-20 10:30N 48°23' W 004°30'510.4
2018-Jun-20 10:00N 48°18' W 004°31'4 7.9
2018-Jun-20 09:30N 48°17' W 004°25'713.4
2018-Jun-20 09:01N 48°23' W 004°30'0 0.0
2018-Jun-20 08:31N 48°23' W 004°30'0 0.0
2018-Jun-20 08:01N 48°23' W 004°30'1 2.6
2018-Jun-20 07:30N 48°22' W 004°29'4 8.1
2018-Jun-20 07:00N 48°18' W 004°31'510.4
2018-Jun-20 06:31N 48°23' W 004°30'510.1
2018-Jun-20 06:01N 48°18' W 004°30'0 0.5
2018-Jun-20 05:30N 48°18' W 004°31'510.4
2018-Jun-20 05:00N 48°23' W 004°30'0 0.0
2018-Jun-20 04:31N 48°23' W 004°30'0 0.0
2018-Jun-20 04:00N 48°23' W 004°30'0 0.0
2018-Jun-20 03:30N 48°23' W 004°30'0 0.0
2018-Jun-20 03:00N 48°23' W 004°30'0 0.0
2018-Jun-20 02:29N 48°23' W 004°30'0 0.0
2018-Jun-20 02:00N 48°23' W 004°30'0 0.0
2018-Jun-20 01:28N 48°23' W 004°30'0 0.0
2018-Jun-20 01:00N 48°23' W 004°30'0 0.0
2018-Jun-20 00:30N 48°23' W 004°30'0 0.0
2018-Jun-20 00:01N 48°23' W 004°30'0 0.0
2018-Jun-19 23:31N 48°23' W 004°30'0 0.0
2018-Jun-19 23:00N 48°23' W 004°30'0 0.0
2018-Jun-19 22:31N 48°23' W 004°30'0 0.0
2018-Jun-19 22:00N 48°23' W 004°30'0 0.0
2018-Jun-19 21:31N 48°23' W 004°30'0 0.0
2018-Jun-19 21:00N 48°23' W 004°30'0 0.0
2018-Jun-19 20:31N 48°23' W 004°30'0 0.0
2018-Jun-19 20:00N 48°23' W 004°30'0 0.0
2018-Jun-19 19:31N 48°23' W 004°30'0 0.0
2018-Jun-19 19:00N 48°23' W 004°30'0 0.0
2018-Jun-19 18:30N 48°23' W 004°30'0 0.0
2018-Jun-19 18:01N 48°23' W 004°30'0 0.0
2018-Jun-19 17:30N 48°23' W 004°30'0 0.0
2018-Jun-19 17:01N 48°23' W 004°30'0 0.0
2018-Jun-19 16:30N 48°23' W 004°30'0 0.0
2018-Jun-19 16:00N 48°23' W 004°30'0 0.0
2018-Jun-19 15:31N 48°23' W 004°30'1 2.5
2018-Jun-19 15:00N 48°22' W 004°29'4 8.2
2018-Jun-19 14:30N 48°18' W 004°31'510.3
2018-Jun-19 14:00N 48°23' W 004°30'0 0.0
2018-Jun-19 13:30N 48°23' W 004°30'0 0.0
2018-Jun-19 13:00N 48°23' W 004°30'0 0.0
2018-Jun-19 12:30N 48°23' W 004°30'0 0.0
2018-Jun-19 12:00N 48°23' W 004°30'0 0.0
2018-Jun-19 11:30N 48°23' W 004°30'0 0.0
2018-Jun-19 11:00N 48°23' W 004°30'0 0.0
2018-Jun-19 10:30N 48°23' W 004°30'510.4
2018-Jun-19 10:00N 48°18' W 004°31'4 7.8
2018-Jun-19 09:30N 48°17' W 004°25'713.4
2018-Jun-19 09:00N 48°23' W 004°30'0 0.0
2018-Jun-19 08:31N 48°23' W 004°30'0 0.0
2018-Jun-19 08:00N 48°23' W 004°30'0 0.8
2018-Jun-19 07:30N 48°23' W 004°30'5 9.7
2018-Jun-19 07:00N 48°18' W 004°31'510.3
2018-Jun-19 06:30N 48°23' W 004°30'5 9.8
2018-Jun-19 06:00N 48°18' W 004°30'0 0.9
2018-Jun-19 05:30N 48°18' W 004°30'510.3
2018-Jun-19 05:01N 48°23' W 004°30'0 0.0
2018-Jun-19 04:31N 48°23' W 004°30'0 0.0
2018-Jun-19 04:01N 48°23' W 004°30'0 0.0
2018-Jun-19 03:31N 48°23' W 004°30'0 0.0
2018-Jun-19 03:01N 48°23' W 004°30'0 0.0
2018-Jun-19 02:30N 48°23' W 004°30'0 0.0
2018-Jun-19 02:01N 48°23' W 004°30'0 0.0
2018-Jun-19 01:31N 48°23' W 004°30'0 0.0
2018-Jun-19 01:00N 48°23' W 004°30'0 0.0
2018-Jun-19 00:30N 48°23' W 004°30'0 0.0
2018-Jun-19 00:00N 48°23' W 004°30'0 0.0
2018-Jun-18 23:31N 48°23' W 004°30'0 0.0
2018-Jun-18 23:01N 48°23' W 004°30'0 0.0
2018-Jun-18 22:31N 48°23' W 004°30'0 0.0
2018-Jun-18 22:01N 48°23' W 004°30'0 0.0
2018-Jun-18 21:30N 48°23' W 004°30'0 0.0
2018-Jun-18 21:01N 48°23' W 004°30'0 0.0
2018-Jun-18 20:31N 48°23' W 004°30'0 0.0
2018-Jun-18 20:01N 48°23' W 004°30'0 0.0
2018-Jun-18 19:30N 48°23' W 004°30'0 0.0
2018-Jun-18 19:01N 48°23' W 004°30'0 0.0
2018-Jun-18 18:31N 48°23' W 004°30'0 0.0
2018-Jun-18 18:01N 48°23' W 004°30'0 0.0
2018-Jun-18 17:30N 48°23' W 004°30'0 0.0
2018-Jun-18 17:00N 48°23' W 004°30'0 0.0
2018-Jun-18 16:31N 48°23' W 004°30'0 0.0
2018-Jun-18 16:00N 48°23' W 004°30'0 0.0
2018-Jun-18 15:31N 48°23' W 004°30'1 1.9
2018-Jun-18 15:00N 48°22' W 004°29'4 8.8
2018-Jun-18 14:30N 48°18' W 004°31'5 9.8
2018-Jun-18 13:59N 48°23' W 004°30'0 0.0
2018-Jun-18 13:31N 48°23' W 004°30'0 0.0
2018-Jun-18 13:00N 48°23' W 004°30'0 0.0
2018-Jun-18 12:30N 48°23' W 004°30'0 0.0
2018-Jun-18 12:01N 48°23' W 004°30'0 0.0
2018-Jun-18 11:31N 48°23' W 004°30'0 0.0
2018-Jun-18 11:01N 48°23' W 004°30'0 0.0
2018-Jun-18 10:30N 48°23' W 004°30'510.5
2018-Jun-18 10:00N 48°18' W 004°31'4 7.8
2018-Jun-18 09:31N 48°17' W 004°25'713.4
2018-Jun-18 09:01N 48°23' W 004°30'0 0.0
2018-Jun-18 08:31N 48°23' W 004°30'0 0.0
2018-Jun-18 08:00N 48°23' W 004°30'1 2.9
2018-Jun-18 07:30N 48°22' W 004°29'4 7.9
2018-Jun-18 07:00N 48°18' W 004°31'510.4
2018-Jun-18 06:30N 48°23' W 004°30'510.1
2018-Jun-18 06:00N 48°18' W 004°30'0 0.9
2018-Jun-18 05:30N 48°18' W 004°30'510.3
2018-Jun-18 05:00N 48°23' W 004°30'0 0.0
2018-Jun-18 04:30N 48°23' W 004°30'0 0.0
2018-Jun-18 04:00N 48°23' W 004°30'0 0.0
2018-Jun-18 03:30N 48°23' W 004°30'0 0.0
2018-Jun-18 03:00N 48°23' W 004°30'0 0.0
2018-Jun-18 02:30N 48°23' W 004°30'0 0.0
2018-Jun-18 02:00N 48°23' W 004°30'0 0.0
2018-Jun-18 01:30N 48°23' W 004°30'0 0.0
2018-Jun-18 01:00N 48°23' W 004°30'0 0.0
2018-Jun-18 00:30N 48°23' W 004°30'0 0.0
2018-Jun-18 00:00N 48°23' W 004°30'0 0.0
2018-Jun-17 23:30N 48°23' W 004°30'0 0.0
2018-Jun-17 23:00N 48°23' W 004°30'0 0.0
2018-Jun-17 22:30N 48°23' W 004°30'0 0.0
2018-Jun-17 22:00N 48°23' W 004°30'0 0.0
2018-Jun-17 21:30N 48°23' W 004°30'0 0.0
2018-Jun-17 21:00N 48°23' W 004°30'0 0.0
2018-Jun-17 20:30N 48°23' W 004°30'0 0.0
2018-Jun-17 20:00N 48°23' W 004°30'0 0.0
2018-Jun-17 19:30N 48°23' W 004°30'0 0.0
2018-Jun-17 19:00N 48°23' W 004°30'0 0.0
2018-Jun-17 18:30N 48°23' W 004°30'0 0.0
2018-Jun-17 18:00N 48°23' W 004°30'0 0.0
2018-Jun-17 17:30N 48°23' W 004°30'0 0.0
2018-Jun-17 17:00N 48°23' W 004°30'0 0.0
2018-Jun-17 16:30N 48°23' W 004°30'0 0.0
2018-Jun-17 16:00N 48°23' W 004°30'0 0.0
2018-Jun-17 15:30N 48°23' W 004°30'0 0.0
2018-Jun-17 15:00N 48°23' W 004°30'0 0.0
2018-Jun-17 14:30N 48°23' W 004°30'0 0.0
2018-Jun-17 14:00N 48°23' W 004°30'0 0.0
2018-Jun-17 13:30N 48°23' W 004°30'0 0.0
2018-Jun-17 13:00N 48°23' W 004°30'0 0.0
2018-Jun-17 12:30N 48°23' W 004°30'0 0.0
2018-Jun-17 12:00N 48°23' W 004°30'0 0.0
2018-Jun-17 11:30N 48°23' W 004°30'0 0.0
2018-Jun-17 11:00N 48°23' W 004°30'0 0.0
2018-Jun-17 10:30N 48°23' W 004°30'0 0.0
2018-Jun-17 10:00N 48°23' W 004°30'0 0.0
2018-Jun-17 09:30N 48°23' W 004°30'0 0.0
2018-Jun-17 09:00N 48°23' W 004°30'0 0.0
2018-Jun-17 08:30N 48°23' W 004°30'0 0.0
2018-Jun-17 08:00N 48°23' W 004°30'0 0.0
2018-Jun-17 07:30N 48°23' W 004°30'0 0.0
2018-Jun-17 07:00N 48°23' W 004°30'0 0.0
2018-Jun-17 06:30N 48°23' W 004°30'0 0.0
2018-Jun-17 06:00N 48°23' W 004°30'0 0.0
2018-Jun-17 05:30N 48°23' W 004°30'0 0.0
2018-Jun-17 05:00N 48°23' W 004°30'0 0.0
2018-Jun-17 04:30N 48°23' W 004°30'0 0.0
2018-Jun-17 04:00N 48°23' W 004°30'0 0.0
2018-Jun-17 03:30N 48°23' W 004°30'0 0.0
2018-Jun-17 03:00N 48°23' W 004°30'0 0.0
2018-Jun-17 02:30N 48°23' W 004°30'0 0.0
2018-Jun-17 02:00N 48°23' W 004°30'0 0.0
2018-Jun-17 01:30N 48°23' W 004°30'0 0.0
2018-Jun-17 01:00N 48°23' W 004°30'0 0.0
2018-Jun-17 00:30N 48°23' W 004°30'0 0.0
2018-Jun-17 00:00N 48°23' W 004°30'0 0.0
2018-Jun-16 23:30N 48°23' W 004°30'0 0.0
2018-Jun-16 23:00N 48°23' W 004°30'0 0.0
2018-Jun-16 22:30N 48°23' W 004°30'0 0.0
2018-Jun-16 22:00N 48°23' W 004°30'0 0.0
2018-Jun-16 21:30N 48°23' W 004°30'0 0.0
2018-Jun-16 21:00N 48°23' W 004°30'0 0.0
2018-Jun-16 20:30N 48°23' W 004°30'0 0.0
2018-Jun-16 20:00N 48°23' W 004°30'0 0.0
2018-Jun-16 19:30N 48°23' W 004°30'0 0.0
2018-Jun-16 19:00N 48°23' W 004°30'0 0.0
2018-Jun-16 18:30N 48°23' W 004°30'0 0.0
2018-Jun-16 18:00N 48°23' W 004°30'0 0.0
2018-Jun-16 17:30N 48°23' W 004°30'0 0.0
2018-Jun-16 17:00N 48°23' W 004°30'0 0.0
2018-Jun-16 16:30N 48°23' W 004°30'0 0.0
2018-Jun-16 16:00N 48°23' W 004°30'0 0.0
2018-Jun-16 15:30N 48°23' W 004°30'0 0.0
2018-Jun-16 15:00N 48°23' W 004°30'0 0.0
2018-Jun-16 14:30N 48°23' W 004°30'0 0.0
2018-Jun-16 14:00N 48°23' W 004°30'0 0.0
2018-Jun-16 13:30N 48°23' W 004°30'0 0.0
2018-Jun-16 13:00N 48°23' W 004°30'0 0.0
2018-Jun-16 12:30N 48°23' W 004°30'0 0.0
2018-Jun-16 12:00N 48°23' W 004°30'0 0.0
2018-Jun-16 11:30N 48°23' W 004°30'0 0.0
2018-Jun-16 11:00N 48°23' W 004°30'0 0.0
2018-Jun-16 10:29N 48°23' W 004°30'0 0.0
2018-Jun-16 10:00N 48°23' W 004°30'0 0.0
2018-Jun-16 09:30N 48°23' W 004°30'0 0.0
2018-Jun-16 09:00N 48°23' W 004°30'0 0.0
2018-Jun-16 08:30N 48°23' W 004°30'0 0.0
2018-Jun-16 08:01N 48°23' W 004°30'0 0.0
2018-Jun-16 07:31N 48°23' W 004°30'0 0.0
2018-Jun-16 07:00N 48°23' W 004°30'0 0.0
2018-Jun-16 06:30N 48°23' W 004°30'0 0.0
2018-Jun-16 06:01N 48°23' W 004°30'0 0.0
2018-Jun-16 05:31N 48°23' W 004°30'0 0.0
2018-Jun-16 05:00N 48°23' W 004°30'0 0.0
2018-Jun-16 04:31N 48°23' W 004°30'0 0.0
2018-Jun-16 04:00N 48°23' W 004°30'0 0.0
2018-Jun-16 03:30N 48°23' W 004°30'0 0.0
2018-Jun-16 03:00N 48°23' W 004°30'0 0.0
2018-Jun-16 02:31N 48°23' W 004°30'0 0.0
2018-Jun-16 02:01N 48°23' W 004°30'0 0.0
2018-Jun-16 01:31N 48°23' W 004°30'0 0.0
2018-Jun-16 01:01N 48°23' W 004°30'0 0.0
2018-Jun-16 00:31N 48°23' W 004°30'0 0.0
2018-Jun-16 00:01N 48°23' W 004°30'0 0.0
2018-Jun-15 23:31N 48°23' W 004°30'0 0.0
2018-Jun-15 23:01N 48°23' W 004°30'0 0.0
2018-Jun-15 22:31N 48°23' W 004°30'0 0.0
2018-Jun-15 22:01N 48°23' W 004°30'0 0.0
2018-Jun-15 21:31N 48°23' W 004°30'0 0.0
2018-Jun-15 21:01N 48°23' W 004°30'0 0.0
2018-Jun-15 20:30N 48°23' W 004°30'0 0.0
2018-Jun-15 20:00N 48°23' W 004°30'0 0.0
2018-Jun-15 19:31N 48°23' W 004°30'0 0.0
2018-Jun-15 19:01N 48°23' W 004°30'0 0.0
2018-Jun-15 18:31N 48°23' W 004°30'0 0.0
2018-Jun-15 18:01N 48°23' W 004°30'0 0.0
2018-Jun-15 17:30N 48°23' W 004°30'0 0.0
2018-Jun-15 17:01N 48°23' W 004°30'0 0.0
2018-Jun-15 16:31N 48°23' W 004°30'0 0.0
2018-Jun-15 16:01N 48°23' W 004°30'0 0.0
2018-Jun-15 15:31N 48°23' W 004°30'1 2.2
2018-Jun-15 15:00N 48°22' W 004°29'4 8.5
2018-Jun-15 14:30N 48°18' W 004°31'510.3
2018-Jun-15 14:00N 48°23' W 004°30'0 0.0
2018-Jun-15 13:30N 48°23' W 004°30'0 0.0
2018-Jun-15 13:00N 48°23' W 004°30'0 0.0
2018-Jun-15 12:28N 48°23' W 004°30'0 0.0
2018-Jun-15 12:00N 48°23' W 004°30'0 0.0
2018-Jun-15 11:30N 48°23' W 004°30'0 0.0
2018-Jun-15 11:00N 48°23' W 004°30'0 0.0
2018-Jun-15 10:30N 48°23' W 004°30'510.4
2018-Jun-15 10:00N 48°18' W 004°31'4 7.9
2018-Jun-15 09:30N 48°17' W 004°25'713.4
2018-Jun-15 09:00N 48°23' W 004°30'0 0.0
2018-Jun-15 08:30N 48°23' W 004°30'1 1.9
2018-Jun-15 08:00N 48°22' W 004°31'1 1.7
2018-Jun-15 07:30N 48°22' W 004°29'5 9.2
2018-Jun-15 07:00N 48°18' W 004°31'510.3
2018-Jun-15 06:30N 48°23' W 004°30'5 9.8
2018-Jun-15 06:01N 48°18' W 004°30'0 0.8
2018-Jun-15 05:30N 48°18' W 004°30'510.4
2018-Jun-15 05:00N 48°23' W 004°30'0 0.0
2018-Jun-15 04:30N 48°23' W 004°30'0 0.0
2018-Jun-15 04:00N 48°23' W 004°30'0 0.0
2018-Jun-15 03:30N 48°23' W 004°30'0 0.0
2018-Jun-15 03:00N 48°23' W 004°30'0 0.0
2018-Jun-15 02:30N 48°23' W 004°30'0 0.0
2018-Jun-15 02:00N 48°23' W 004°30'0 0.0
2018-Jun-15 01:30N 48°23' W 004°30'0 0.0
2018-Jun-15 01:00N 48°23' W 004°30'0 0.0
2018-Jun-15 00:30N 48°23' W 004°30'0 0.0
2018-Jun-15 00:00N 48°23' W 004°30'0 0.0
2018-Jun-14 23:30N 48°23' W 004°30'0 0.0
2018-Jun-14 23:00N 48°23' W 004°30'0 0.0
2018-Jun-14 22:30N 48°23' W 004°30'0 0.0
2018-Jun-14 22:00N 48°23' W 004°30'0 0.0
2018-Jun-14 21:30N 48°23' W 004°30'0 0.0
2018-Jun-14 21:00N 48°23' W 004°30'0 0.0
2018-Jun-14 20:30N 48°23' W 004°30'0 0.0
2018-Jun-14 19:58N 48°23' W 004°30'0 0.0
2018-Jun-14 19:30N 48°23' W 004°30'0 0.0
2018-Jun-14 19:00N 48°23' W 004°30'0 0.0
2018-Jun-14 18:30N 48°23' W 004°30'0 0.0
2018-Jun-14 18:00N 48°23' W 004°30'0 0.0
2018-Jun-14 17:30N 48°23' W 004°30'0 0.0
2018-Jun-14 17:00N 48°23' W 004°30'0 0.0
2018-Jun-14 16:30N 48°23' W 004°30'0 0.0
2018-Jun-14 16:00N 48°23' W 004°30'0 0.0
2018-Jun-14 15:30N 48°23' W 004°30'1 2.5
2018-Jun-14 15:00N 48°22' W 004°29'4 8.1
2018-Jun-14 14:30N 48°18' W 004°31'510.2
2018-Jun-14 14:00N 48°23' W 004°30'0 0.0
2018-Jun-14 13:30N 48°23' W 004°30'0 0.0
2018-Jun-14 13:00N 48°23' W 004°30'0 0.0
2018-Jun-14 12:30N 48°23' W 004°30'0 0.0
2018-Jun-14 12:00N 48°23' W 004°30'0 0.0
2018-Jun-14 11:30N 48°23' W 004°30'0 0.0
2018-Jun-14 11:00N 48°23' W 004°30'0 0.0
2018-Jun-14 10:30N 48°23' W 004°30'510.4
2018-Jun-14 10:00N 48°18' W 004°31'4 7.9
2018-Jun-14 09:31N 48°17' W 004°25'713.4
2018-Jun-14 09:00N 48°23' W 004°30'0 0.0
2018-Jun-14 08:30N 48°23' W 004°30'0 0.0
2018-Jun-14 08:00N 48°23' W 004°30'1 2.2
2018-Jun-14 07:30N 48°22' W 004°29'4 8.4
2018-Jun-14 07:00N 48°18' W 004°31'510.5
2018-Jun-14 06:30N 48°23' W 004°30'5 9.8
2018-Jun-14 06:00N 48°18' W 004°30'0 0.6
2018-Jun-14 05:30N 48°18' W 004°30'510.2
2018-Jun-14 05:00N 48°23' W 004°30'0 0.0
2018-Jun-14 04:30N 48°23' W 004°30'0 0.0
2018-Jun-14 04:00N 48°23' W 004°30'0 0.0
2018-Jun-14 03:30N 48°23' W 004°30'0 0.0
2018-Jun-14 03:00N 48°23' W 004°30'0 0.0
2018-Jun-14 02:30N 48°23' W 004°30'0 0.0
2018-Jun-14 02:00N 48°23' W 004°30'0 0.0
2018-Jun-14 01:30N 48°23' W 004°30'0 0.0
2018-Jun-14 01:00N 48°23' W 004°30'0 0.0
2018-Jun-14 00:30N 48°23' W 004°30'0 0.0
2018-Jun-14 00:00N 48°23' W 004°30'0 0.0
2018-Jun-13 23:30N 48°23' W 004°30'0 0.0
2018-Jun-13 23:00N 48°23' W 004°30'0 0.0
2018-Jun-13 22:30N 48°23' W 004°30'0 0.0
2018-Jun-13 22:00N 48°23' W 004°30'0 0.0
2018-Jun-13 21:30N 48°23' W 004°30'0 0.0
2018-Jun-13 21:00N 48°23' W 004°30'0 0.0
2018-Jun-13 20:30N 48°23' W 004°30'0 0.0
2018-Jun-13 20:00N 48°23' W 004°30'0 0.0
2018-Jun-13 19:30N 48°23' W 004°30'0 0.0
2018-Jun-13 19:00N 48°23' W 004°30'0 0.0
2018-Jun-13 18:30N 48°23' W 004°30'0 0.0
2018-Jun-13 18:00N 48°23' W 004°30'0 0.0
2018-Jun-13 17:30N 48°23' W 004°30'0 0.0
2018-Jun-13 17:00N 48°23' W 004°30'0 0.0
2018-Jun-13 16:30N 48°23' W 004°30'0 0.0
2018-Jun-13 16:00N 48°23' W 004°30'0 0.0
2018-Jun-13 15:30N 48°23' W 004°30'1 2.0
2018-Jun-13 15:00N 48°22' W 004°29'4 8.6
2018-Jun-13 14:30N 48°18' W 004°31'510.4
2018-Jun-13 14:00N 48°23' W 004°30'0 0.0
2018-Jun-13 13:30N 48°23' W 004°30'0 0.0
2018-Jun-13 13:00N 48°23' W 004°30'0 0.0
2018-Jun-13 12:30N 48°23' W 004°30'0 0.0
2018-Jun-13 12:00N 48°23' W 004°30'0 0.0
2018-Jun-13 11:29N 48°23' W 004°30'0 0.0
2018-Jun-13 11:00N 48°23' W 004°30'0 0.0
2018-Jun-13 10:30N 48°23' W 004°30'510.4
2018-Jun-13 10:00N 48°18' W 004°31'4 7.8
2018-Jun-13 09:30N 48°17' W 004°25'713.5
2018-Jun-13 09:00N 48°23' W 004°30'0 0.0
2018-Jun-13 08:30N 48°23' W 004°30'0 0.0
2018-Jun-13 08:00N 48°23' W 004°30'1 2.0
2018-Jun-13 07:30N 48°22' W 004°29'4 8.7
2018-Jun-13 07:00N 48°18' W 004°31'510.2
2018-Jun-13 06:30N 48°23' W 004°30'5 9.9
2018-Jun-13 06:00N 48°18' W 004°30'0 0.7
2018-Jun-13 05:31N 48°18' W 004°30'510.2
2018-Jun-13 05:00N 48°23' W 004°30'0 0.0
2018-Jun-13 04:30N 48°23' W 004°30'0 0.0
2018-Jun-13 03:59N 48°23' W 004°30'0 0.0
2018-Jun-13 03:30N 48°23' W 004°30'0 0.0
2018-Jun-13 03:00N 48°23' W 004°30'0 0.0
2018-Jun-13 02:30N 48°23' W 004°30'0 0.0
2018-Jun-13 02:00N 48°23' W 004°30'0 0.0
2018-Jun-13 01:31N 48°23' W 004°30'0 0.0
2018-Jun-13 01:00N 48°23' W 004°30'0 0.0
2018-Jun-13 00:30N 48°23' W 004°30'0 0.0
2018-Jun-13 00:00N 48°23' W 004°30'0 0.0
2018-Jun-12 23:30N 48°23' W 004°30'0 0.0
2018-Jun-12 22:59N 48°23' W 004°30'0 0.0
2018-Jun-12 22:28N 48°23' W 004°30'0 0.0
2018-Jun-12 22:00N 48°23' W 004°30'0 0.0
2018-Jun-12 21:30N 48°23' W 004°30'0 0.0
2018-Jun-12 21:00N 48°23' W 004°30'0 0.0
2018-Jun-12 20:30N 48°23' W 004°30'0 0.0
2018-Jun-12 19:59N 48°23' W 004°30'0 0.0
2018-Jun-12 19:31N 48°23' W 004°30'0 0.0
2018-Jun-12 18:59N 48°23' W 004°30'0 0.0
2018-Jun-12 18:30N 48°23' W 004°30'0 0.0
2018-Jun-12 18:00N 48°23' W 004°30'0 0.0
2018-Jun-12 17:31N 48°23' W 004°30'0 0.0
2018-Jun-12 17:01N 48°23' W 004°30'0 0.0
2018-Jun-12 16:30N 48°23' W 004°30'0 0.0
2018-Jun-12 16:00N 48°23' W 004°30'0 0.0
2018-Jun-12 15:31N 48°23' W 004°30'1 2.4
2018-Jun-12 15:00N 48°22' W 004°29'4 8.3
2018-Jun-12 14:30N 48°18' W 004°31'510.4
2018-Jun-12 14:00N 48°23' W 004°30'  

Dump ship's entire track history